Time;durP1;ratioP1;P1;durP2;ratioP2;P2;SDS_P1;SDS_P2;PMS_P1;PMS_P2;Temp;Humidity;BMP_temperature;BMP_pressure;BME280_temperature;BME280_humidity;BME280_pressure;Samples;Min_cycle;Max_cycle;Signal;HPM_P1;HPM_P2
2022/12/07 00:00:43;;;;;;;44.10;22.23;;;;;;;7.27;57.77;93807.06;5007376;28;20052;-78
2022/12/07 00:03:08;;;;;;;38.15;20.95;;;;;;;6.93;57.43;93756.38;5003538;28;20112;-78
2022/12/07 00:05:33;;;;;;;40.70;22.08;;;;;;;7.24;57.87;93819.00;4987433;28;20399;-78
2022/12/07 00:07:59;;;;;;;45.38;23.17;;;;;;;6.89;57.88;93755.41;4986945;28;20544;-77
2022/12/07 00:10:24;;;;;;;43.90;21.70;;;;;;;7.38;57.35;93824.34;5000470;28;20042;-78
2022/12/07 00:12:50;;;;;;;42.22;21.27;;;;;;;7.30;57.25;93791.41;5007408;28;20545;-78
2022/12/07 00:15:15;;;;;;;40.92;20.83;;;;;;;7.37;57.40;93804.25;5007037;28;20107;-78
2022/12/07 00:17:41;;;;;;;39.67;21.50;;;;;;;7.21;57.48;93776.50;5005591;28;20025;-78
2022/12/07 00:20:07;;;;;;;43.25;21.70;;;;;;;7.43;57.06;93813.66;5008799;28;20053;-78
2022/12/07 00:22:32;;;;;;;46.80;22.02;;;;;;;7.38;57.05;93792.59;5007209;28;20377;-78
2022/12/07 00:24:57;;;;;;;34.85;19.15;;;;;;;7.15;56.99;93759.13;5006836;28;20330;-79
2022/12/07 00:27:23;;;;;;;43.53;20.73;;;;;;;7.42;57.09;93806.81;5004568;28;20084;-78
2022/12/07 00:29:48;;;;;;;36.10;21.25;;;;;;;7.20;57.24;93782.84;5008067;28;20026;-78
2022/12/07 00:32:13;;;;;;;33.85;18.77;;;;;;;7.42;57.24;93819.25;5009972;28;20064;-78
2022/12/07 00:34:39;;;;;;;40.42;18.95;;;;;;;7.25;57.23;93799.41;5004352;28;20504;-78
2022/12/07 00:37:04;;;;;;;36.55;19.58;;;;;;;7.42;57.31;93820.03;5005463;28;20037;-78
2022/12/07 00:39:30;;;;;;;33.55;18.88;;;;;;;7.43;57.17;93816.31;5002973;28;20068;-78
2022/12/07 00:41:55;;;;;;;44.97;21.63;;;;;;;7.39;57.02;93796.00;5005402;28;20397;-77
2022/12/07 00:44:20;;;;;;;34.38;20.25;;;;;;;7.40;57.28;93801.00;5006001;28;20121;-78
2022/12/07 00:46:46;;;;;;;42.75;19.80;;;;;;;7.20;57.70;93796.09;5007812;28;20457;-79
2022/12/07 00:49:11;;;;;;;35.85;19.60;;;;;;;7.36;57.95;93810.59;5007747;28;20046;-78
2022/12/07 00:51:37;;;;;;;39.33;20.63;;;;;;;7.12;57.65;93770.31;5005299;28;20050;-77
2022/12/07 00:54:02;;;;;;;41.90;21.02;;;;;;;7.35;57.96;93809.03;5008715;28;20535;-76
2022/12/07 00:56:29;;;;;;;44.40;20.13;;;;;;;7.34;57.98;93818.03;5008322;28;20021;-77
2022/12/07 00:58:59;;;;;;;37.03;19.00;;;;;;;7.20;58.29;93793.44;5007587;28;20132;-78
2022/12/07 01:01:26;;;;;;;37.90;20.02;;;;;;;6.84;58.27;93750.97;5007261;28;20498;-78
2022/12/07 01:03:52;;;;;;;32.63;17.50;;;;;;;7.32;58.21;93814.94;5005648;28;20092;-78
2022/12/07 01:06:19;;;;;;;35.90;20.20;;;;;;;7.32;58.23;93804.34;5008254;28;20045;-78
2022/12/07 01:08:45;;;;;;;36.85;20.08;;;;;;;7.31;58.18;93802.75;5006001;28;20029;-77
2022/12/07 01:11:14;;;;;;;36.08;19.55;;;;;;;7.30;58.33;93807.28;5006524;28;20555;-76
2022/12/07 01:13:40;;;;;;;34.95;19.05;;;;;;;7.33;58.25;93811.22;5008275;28;20037;-77
2022/12/07 01:16:07;;;;;;;34.42;19.20;;;;;;;7.31;58.50;93802.75;5007752;28;20041;-77
2022/12/07 01:18:35;;;;;;;39.72;21.00;;;;;;;7.18;58.41;93777.09;5006606;28;20041;-78
2022/12/07 01:21:11;;;;;;;37.28;18.55;;;;;;;7.35;58.35;93806.38;5006631;28;20076;-78
2022/12/07 01:23:37;;;;;;;29.13;18.05;;;;;;;7.30;58.30;93787.97;5006604;28;20068;-78
2022/12/07 01:26:05;;;;;;;33.95;20.05;;;;;;;7.26;58.55;93792.28;5006981;28;20072;-78
2022/12/07 01:28:31;;;;;;;36.00;18.63;;;;;;;7.08;58.62;93761.41;5008123;28;20508;-79
2022/12/07 01:31:14;;;;;;;34.75;19.35;;;;;;;7.22;58.30;93776.22;4995284;28;20045;-76
2022/12/07 01:33:40;;;;;;;37.65;17.40;;;;;;;7.29;58.19;93783.75;4985957;28;20526;-79
2022/12/07 01:36:06;;;;;;;32.15;18.45;;;;;;;7.36;58.17;93789.44;4985783;28;20049;-76
2022/12/07 01:38:32;;;;;;;34.78;17.73;;;;;;;7.39;57.74;93788.06;4988512;28;20093;-77
2022/12/07 01:41:00;;;;;;;29.92;17.95;;;;;;;7.17;57.64;93759.66;5004525;28;20041;-76
2022/12/07 01:43:28;;;;;;;35.15;18.05;;;;;;;7.38;57.54;93789.94;5006596;28;20368;-76
2022/12/07 01:45:54;;;;;;;38.88;19.42;;;;;;;7.40;57.58;93790.41;5007792;28;20037;-76
2022/12/07 01:48:28;;;;;;;33.15;17.88;;;;;;;7.35;57.63;93787.88;5006541;28;20516;-77
2022/12/07 01:50:56;;;;;;;30.20;16.85;;;;;;;7.35;57.54;93787.88;5011640;28;20025;-76
2022/12/07 01:53:26;;;;;;;31.75;16.65;;;;;;;7.27;57.30;93770.81;5006551;28;20626;-79
2022/12/07 01:55:53;;;;;;;34.42;16.95;;;;;;;7.41;57.49;93780.63;5008652;28;20601;-76
2022/12/07 01:58:19;;;;;;;32.35;18.77;;;;;;;7.40;57.31;93785.13;5010396;28;20124;-78
2022/12/07 02:00:45;;;;;;;23.65;15.57;;;;;;;7.24;57.43;93757.38;5008772;28;20528;-76
2022/12/07 02:03:20;;;;;;;33.63;16.88;;;;;;;7.42;57.20;93767.13;5011968;28;20506;-77
2022/12/07 02:05:47;;;;;;;32.65;16.67;;;;;;;7.38;57.42;93755.56;5015158;28;20021;-77
2022/12/07 02:08:13;;;;;;;26.95;16.50;;;;;;;7.44;57.37;93757.00;5007726;28;20032;-75
2022/12/07 02:10:39;;;;;;;30.80;16.88;;;;;;;7.26;57.73;93768.47;5010491;28;20037;-79
2022/12/07 02:13:19;;;;;;;34.10;16.63;;;;;;;7.34;57.67;93773.06;5007882;28;20370;-76
2022/12/07 02:16:04;;;;;;;35.65;16.42;;;;;;;7.26;57.66;93774.53;5010786;28;20038;-75
2022/12/07 02:19:03;;;;;;;37.83;16.35;;;;;;;7.33;57.62;93784.75;5010197;28;20389;-78
2022/12/07 02:21:53;;;;;;;29.90;15.82;;;;;;;7.35;57.44;93777.28;5026069;28;20037;-78
2022/12/07 02:24:43;;;;;;;33.85;15.63;;;;;;;7.15;57.39;93737.97;5003186;28;20147;-76
2022/12/07 02:27:30;;;;;;;24.25;14.82;;;;;;;7.34;57.39;93762.47;4995144;28;20087;-77
2022/12/07 02:30:23;;;;;;;27.10;14.27;;;;;;;7.11;57.46;93729.06;5010564;28;20032;-76
2022/12/07 02:33:01;;;;;;;29.67;15.57;;;;;;;7.34;57.49;93759.09;5008902;28;20124;-77
2022/12/07 02:35:40;;;;;;;28.70;14.35;;;;;;;7.32;57.48;93750.66;5008948;28;20151;-77
2022/12/07 02:38:28;;;;;;;29.92;15.38;;;;;;;7.30;57.47;93759.66;5005320;28;20050;-78
2022/12/07 02:41:01;;;;;;;28.40;15.48;;;;;;;7.23;57.55;93759.28;5009852;28;20610;-77
2022/12/07 02:43:52;;;;;;;30.55;15.30;;;;;;;7.15;57.59;93765.22;5009488;28;20404;-77
2022/12/07 02:46:23;;;;;;;26.20;15.35;;;;;;;7.03;57.26;93743.78;4999452;28;21065;-77
2022/12/07 02:48:50;;;;;;;27.83;15.82;;;;;;;7.12;57.01;93768.47;5015483;28;20327;-77
2022/12/07 02:51:18;;;;;;;23.25;13.90;;;;;;;6.95;57.31;93736.50;5007537;28;20042;-76
2022/12/07 02:53:47;;;;;;;27.23;14.82;;;;;;;6.98;57.00;93729.84;5010321;28;20025;-77
2022/12/07 02:56:31;;;;;;;28.63;15.65;;;;;;;7.14;56.90;93749.66;5009205;28;20029;-76
2022/12/07 02:59:03;;;;;;;27.38;14.80;;;;;;;7.14;56.93;93749.66;5008382;28;20045;-78
2022/12/07 03:02:03;;;;;;;27.77;14.38;;;;;;;7.14;57.21;93749.66;5009102;28;20061;-78
2022/12/07 03:04:29;;;;;;;27.15;16.15;;;;;;;7.11;56.84;93743.06;4969055;28;20175;-77
2022/12/07 03:07:05;;;;;;;31.00;15.57;;;;;;;7.07;56.63;93728.09;5007002;28;20045;-77
2022/12/07 03:09:38;;;;;;;29.83;14.65;;;;;;;7.12;56.90;93733.28;5010060;28;20049;-76
2022/12/07 03:12:12;;;;;;;22.55;13.38;;;;;;;6.93;56.80;93701.63;5000599;28;20100;-77
2022/12/07 03:14:49;;;;;;;28.73;16.03;;;;;;;6.97;56.22;93705.25;5009827;28;20026;-78
2022/12/07 03:17:20;;;;;;;25.10;13.68;;;;;;;7.00;56.19;93723.19;4998514;28;20322;-78
2022/12/07 03:19:49;;;;;;;28.42;14.25;;;;;;;6.77;56.19;93687.13;4997075;28;20498;-77
2022/12/07 03:22:15;;;;;;;25.10;13.07;;;;;;;7.07;56.05;93736.03;5008655;28;20044;-76
2022/12/07 03:24:54;;;;;;;30.13;14.45;;;;;;;6.96;55.88;93718.78;5007204;28;20517;-77
2022/12/07 03:27:24;;;;;;;25.65;13.70;;;;;;;6.80;55.80;93708.47;5007527;28;20171;-77
2022/12/07 03:30:01;;;;;;;25.27;13.77;;;;;;;6.94;56.01;93739.44;5008726;28;20151;-78
2022/12/07 03:32:38;;;;;;;24.92;11.93;;;;;;;6.92;56.34;93741.59;5006164;28;20063;-76
2022/12/07 03:35:34;;;;;;;28.27;13.90;;;;;;;6.68;56.56;93715.31;5008861;28;20407;-77
2022/12/07 03:38:10;;;;;;;24.08;13.48;;;;;;;6.93;56.59;93740.50;5001375;28;20034;-77
2022/12/07 03:40:52;;;;;;;26.30;12.55;;;;;;;6.80;56.73;93724.31;4995840;28;20445;-77
2022/12/07 03:43:19;;;;;;;27.90;12.95;;;;;;;6.70;57.10;93723.75;5009142;28;20175;-77
2022/12/07 03:45:59;;;;;;;22.88;12.85;;;;;;;6.66;57.19;93706.88;5007118;28;20498;-77
2022/12/07 03:48:32;;;;;;;22.35;11.63;;;;;;;6.76;57.13;93712.78;5008261;28;20157;-77
2022/12/07 03:51:22;;;;;;;20.38;12.27;;;;;;;6.71;57.13;93710.22;5006906;28;20033;-76
2022/12/07 03:54:06;;;;;;;21.63;12.55;;;;;;;6.89;57.38;93736.88;5009129;28;20398;-77
2022/12/07 03:56:33;;;;;;;24.20;12.50;;;;;;;6.68;57.07;93699.44;5008561;28;20040;-77
2022/12/07 03:58:59;;;;;;;20.45;12.88;;;;;;;6.90;56.97;93727.88;5008104;28;20034;-77
2022/12/07 04:01:24;;;;;;;22.63;12.35;;;;;;;6.74;57.17;93704.38;5008079;28;20048;-76
2022/12/07 04:03:50;;;;;;;23.63;11.77;;;;;;;6.75;57.11;93699.88;4991075;28;20049;-77
2022/12/07 04:06:15;;;;;;;23.17;12.55;;;;;;;6.84;56.95;93724.53;5011004;28;20615;-76
2022/12/07 04:08:41;;;;;;;25.67;11.52;;;;;;;6.56;57.01;93681.41;5007316;28;20028;-77
2022/12/07 04:11:06;;;;;;;21.02;12.02;;;;;;;6.72;57.04;93705.72;5009320;28;20021;-76
2022/12/07 04:14:17;;;;;;;24.10;12.75;;;;;;;6.72;56.76;93706.50;5005909;28;20053;-77
2022/12/07 04:16:17;;;;;;;21.85;12.82;;;;;;;6.81;56.82;93715.31;5008497;28;20060;-76
2022/12/07 04:18:43;;;;;;;23.70;13.05;;;;;;;6.82;56.76;93718.75;4993544;28;20493;-77
2022/12/07 04:21:08;;;;;;;19.35;11.18;;;;;;;6.75;56.93;93705.91;5007781;28;20041;-77
2022/12/07 04:23:33;;;;;;;20.48;10.73;;;;;;;6.74;56.99;93730.00;5008234;28;20022;-76
2022/12/07 04:25:59;;;;;;;25.13;10.57;;;;;;;6.76;57.13;93723.34;5006318;28;20083;-77
2022/12/07 04:28:24;;;;;;;24.88;11.75;;;;;;;6.67;56.99;93709.22;5006744;28;20397;-78
2022/12/07 04:30:49;;;;;;;19.17;9.48;;;;;;;6.75;56.79;93727.06;5007386;28;20390;-76
2022/12/07 04:33:15;;;;;;;17.90;10.25;;;;;;;6.27;56.77;93673.69;5007283;28;20045;-78
2022/12/07 04:35:42;;;;;;;17.98;11.07;;;;;;;6.67;56.73;93722.44;5006298;28;20393;-76
2022/12/07 04:38:07;;;;;;;22.92;11.30;;;;;;;6.60;56.94;93723.91;5006319;28;20034;-77
2022/12/07 04:40:33;;;;;;;20.13;9.60;;;;;;;6.50;56.71;93702.94;5006340;28;20065;-76
2022/12/07 04:42:58;;;;;;;25.40;12.05;;;;;;;6.63;56.69;93724.09;5003126;28;20038;-78
2022/12/07 04:45:23;;;;;;;32.90;15.60;;;;;;;6.49;56.54;93707.44;5007082;28;20099;-78
2022/12/07 04:47:49;;;;;;;24.75;12.77;;;;;;;6.65;56.70;93743.06;5005557;28;20048;-78
2022/12/07 04:50:14;;;;;;;26.13;12.07;;;;;;;6.59;56.63;93728.41;5007006;28;20037;-76
2022/12/07 04:52:40;;;;;;;27.65;12.18;;;;;;;6.62;56.41;93743.66;5004887;28;21420;-77
2022/12/07 04:55:05;;;;;;;21.38;11.07;;;;;;;6.61;56.39;93731.53;5006396;28;20520;-77
2022/12/07 04:57:31;;;;;;;23.77;12.32;;;;;;;6.59;56.63;93723.13;5005767;28;20421;-77
2022/12/07 04:59:56;;;;;;;21.92;10.77;;;;;;;6.57;56.81;93729.75;4985246;28;20030;-77
2022/12/07 05:02:21;;;;;;;22.05;9.45;;;;;;;6.63;56.61;93729.38;4994013;28;20046;-76
2022/12/07 05:04:47;;;;;;;21.30;9.88;;;;;;;6.40;56.53;93720.53;5007567;28;20038;-78
2022/12/07 05:07:12;;;;;;;21.73;10.10;;;;;;;6.51;56.59;93734.34;5006225;28;20126;-77
2022/12/07 05:09:37;;;;;;;19.08;10.10;;;;;;;6.36;56.70;93713.47;5006520;28;20251;-77
2022/12/07 05:12:03;;;;;;;19.35;10.50;;;;;;;6.50;56.72;93746.00;5005722;28;20037;-77
2022/12/07 05:14:28;;;;;;;25.55;13.48;;;;;;;6.31;57.23;93727.50;5008405;28;20048;-77
2022/12/07 05:16:54;;;;;;;24.70;14.73;;;;;;;6.21;58.46;93726.91;5006677;28;20532;-77
2022/12/07 05:19:19;;;;;;;58.67;25.00;;;;;;;6.31;58.67;93747.88;5005460;28;20042;-77
2022/12/07 05:21:45;;;;;;;27.85;15.85;;;;;;;6.39;58.96;93744.56;5006624;28;20041;-78
2022/12/07 05:24:12;;;;;;;27.52;14.18;;;;;;;6.23;59.07;93714.19;5005917;28;20446;-77
2022/12/07 05:26:38;;;;;;;20.08;10.95;;;;;;;6.42;59.17;93738.72;5005720;28;20265;-77
2022/12/07 05:29:04;;;;;;;20.25;11.57;;;;;;;6.10;59.16;93694.56;5006652;28;20045;-76
2022/12/07 05:31:30;;;;;;;21.63;11.55;;;;;;;6.43;59.29;93745.56;5022546;28;20030;-75
2022/12/07 05:33:55;;;;;;;24.42;11.23;;;;;;;6.27;59.14;93699.31;5004508;28;20417;-77
2022/12/07 05:36:21;;;;;;;24.67;11.40;;;;;;;6.47;58.80;93719.34;5002785;28;20476;-76
2022/12/07 05:38:47;;;;;;;21.33;11.38;;;;;;;6.55;58.45;93711.56;4989579;28;20774;-76
2022/12/07 05:44:00;;;;;;;19.75;10.43;;;;;;;6.54;58.10;93725.84;4999871;28;20187;-79
2022/12/07 05:46:26;;;;;;;22.00;10.52;;;;;;;6.25;58.26;93672.44;5004644;28;20042;-78
2022/12/07 05:48:52;;;;;;;24.23;10.73;;;;;;;6.56;58.13;93718.41;5010803;28;20497;-78
2022/12/07 05:51:18;;;;;;;21.02;13.05;;;;;;;6.50;58.05;93702.94;5008561;28;20052;-79
2022/12/07 05:53:44;;;;;;;21.80;11.65;;;;;;;6.44;57.65;93699.59;5006271;28;20692;-77
2022/12/07 05:56:09;;;;;;;23.33;12.00;;;;;;;6.54;57.94;93714.50;5002995;28;20037;-77
2022/12/07 06:01:20;;;;;;;20.53;12.47;;;;;;;6.42;57.76;93691.16;5005401;28;20157;-79
2022/12/07 06:03:46;;;;;;;33.25;16.13;;;;;;;6.61;57.64;93720.94;5001318;28;20276;-78
2022/12/07 06:06:11;;;;;;;36.35;18.60;;;;;;;6.49;57.70;93699.50;5004683;28;20537;-79
2022/12/07 06:08:37;;;;;;;34.13;15.75;;;;;;;6.61;57.81;93726.25;5010700;28;20472;-77
2022/12/07 06:13:49;;;;;;;27.90;15.73;;;;;;;6.59;58.16;93711.75;5003999;28;20469;-78
2022/12/07 06:16:15;;;;;;;28.00;14.07;;;;;;;6.56;58.17;93707.03;5002347;28;20065;-76
2022/12/07 06:18:40;;;;;;;27.63;14.27;;;;;;;6.30;58.21;93664.44;4995173;28;20125;-78
2022/12/07 06:21:06;;;;;;;26.00;14.50;;;;;;;6.66;58.53;93728.00;4996411;28;20069;-78
2022/12/07 06:23:31;;;;;;;28.00;15.43;;;;;;;6.45;58.88;93710.94;5004645;28;20084;-77
2022/12/07 06:25:56;;;;;;;25.92;14.77;;;;;;;6.69;59.16;93744.09;5003771;28;21328;-76
2022/12/07 06:28:22;;;;;;;29.00;15.32;;;;;;;6.75;59.05;93740.28;5003875;28;20397;-78
2022/12/07 06:30:47;;;;;;;44.28;19.50;;;;;;;6.57;59.51;93724.47;5003007;28;20033;-77
2022/12/07 06:33:12;;;;;;;44.95;20.33;;;;;;;6.72;59.59;93738.22;5004884;28;20504;-77
2022/12/07 06:35:38;;;;;;;43.92;20.55;;;;;;;6.73;59.49;93729.22;5005261;28;20052;-78
2022/12/07 06:38:04;;;;;;;36.08;18.58;;;;;;;6.75;59.58;93737.63;5005200;28;20142;-77
2022/12/07 06:40:29;;;;;;;34.78;18.70;;;;;;;6.80;59.60;93739.41;4997909;28;20427;-77
2022/12/07 06:42:54;;;;;;;39.80;19.15;;;;;;;6.77;59.49;93724.13;5009946;28;20133;-77
2022/12/07 06:45:20;;;;;;;41.42;20.77;;;;;;;6.92;59.32;93750.31;5005775;28;20107;-78
2022/12/07 06:47:45;;;;;;;38.88;20.13;;;;;;;6.90;59.68;93743.75;5004078;28;20049;-78
2022/12/07 06:50:11;;;;;;;44.75;20.17;;;;;;;6.81;59.83;93730.41;5002737;28;20061;-77
2022/12/07 06:52:37;;;;;;;49.70;21.92;;;;;;;6.57;59.92;93687.47;5006449;28;20494;-78
2022/12/07 06:55:06;;;;;;;41.15;19.27;;;;;;;6.95;59.76;93751.56;5001638;28;20048;-78
2022/12/07 06:57:31;;;;;;;41.22;21.15;;;;;;;6.98;59.61;93756.28;5007071;28;20172;-80
2022/12/07 06:59:57;;;;;;;46.63;20.88;;;;;;;7.00;59.50;93756.75;5003735;28;21642;-78
2022/12/07 07:02:22;;;;;;;39.72;20.10;;;;;;;6.84;59.59;93729.84;5003401;28;20513;-77
2022/12/07 07:04:48;;;;;;;44.92;21.35;;;;;;;6.92;59.65;93746.88;5005877;28;20146;-77
2022/12/07 07:07:14;;;;;;;45.13;23.95;;;;;;;6.55;59.92;93698.34;5008364;28;20034;-79
2022/12/07 07:09:39;;;;;;;41.22;22.27;;;;;;;6.95;59.77;93757.63;5007315;28;20052;-78
2022/12/07 07:12:05;;;;;;;42.28;21.83;;;;;;;7.01;60.17;93755.69;5005912;28;20057;-77
2022/12/07 07:14:30;;;;;;;43.50;20.85;;;;;;;7.06;60.07;93755.59;5007060;28;20026;-80
2022/12/07 07:16:56;;;;;;;39.30;20.10;;;;;;;7.01;59.95;93734.53;5006784;28;20107;-78
2022/12/07 07:19:21;;;;;;;40.25;20.95;;;;;;;7.15;59.72;93752.00;5006842;28;20041;-77
2022/12/07 07:21:46;;;;;;;41.28;22.35;;;;;;;6.90;59.56;93717.31;5004883;28;20139;-78
2022/12/07 07:24:12;;;;;;;53.08;24.38;;;;;;;7.07;59.69;93759.81;5006751;28;20033;-77
2022/12/07 07:26:37;;;;;;;45.30;23.50;;;;;;;6.91;60.06;93745.28;5007707;28;20029;-77
2022/12/07 07:29:03;;;;;;;48.35;23.75;;;;;;;6.77;60.31;93740.78;5020190;28;20394;-78
2022/12/07 07:31:29;;;;;;;44.10;21.52;;;;;;;6.94;60.53;93756.09;5003711;28;20041;-76
2022/12/07 07:33:54;;;;;;;43.53;20.85;;;;;;;7.02;60.37;93759.91;5003219;28;20434;-77
2022/12/07 07:36:19;;;;;;;44.65;22.70;;;;;;;6.82;60.10;93727.47;5007559;28;20120;-77
2022/12/07 07:38:45;;;;;;;44.72;21.58;;;;;;;7.06;60.08;93753.75;5009217;28;20042;-77
2022/12/07 07:41:10;;;;;;;41.63;22.65;;;;;;;7.01;60.12;93734.53;5005906;28;20037;-77
2022/12/07 07:43:36;;;;;;;47.10;22.20;;;;;;;7.09;60.34;93768.25;5003067;28;20037;-76
2022/12/07 07:46:01;;;;;;;44.88;23.13;;;;;;;6.93;60.42;93743.16;5018230;28;20130;-77
2022/12/07 07:48:27;;;;;;;45.75;22.05;;;;;;;7.06;60.38;93760.91;5009564;28;20085;-77
2022/12/07 07:50:52;;;;;;;53.45;25.92;;;;;;;6.99;61.08;93752.56;5006117;28;20038;-77
2022/12/07 07:53:18;;;;;;;47.22;23.55;;;;;;;7.13;61.13;93758.66;5000856;28;20040;-78
2022/12/07 07:55:56;;;;;;;44.38;22.20;;;;;;;6.77;61.11;93687.91;5009044;28;20414;-77
2022/12/07 07:58:21;;;;;;;50.10;23.10;;;;;;;7.33;60.73;93758.28;5006129;28;20117;-77
2022/12/07 08:00:47;;;;;;;42.17;19.75;;;;;;;7.37;60.17;93767.22;5005832;28;20037;-77
2022/12/07 08:03:12;;;;;;;36.05;18.63;;;;;;;7.46;59.87;93767.31;5008723;28;20394;-77
2022/12/07 08:05:38;;;;;;;41.20;20.60;;;;;;;7.34;59.04;93735.28;5011773;28;20031;-78
2022/12/07 08:08:04;;;;;;;40.45;18.42;;;;;;;7.47;58.82;93747.69;5011104;28;20198;-78
2022/12/07 08:10:31;;;;;;;38.30;19.13;;;;;;;7.47;58.68;93743.19;5014561;28;20053;-76
2022/12/07 08:13:15;;;;;;;36.72;17.73;;;;;;;7.56;58.81;93751.22;5013940;28;20034;-79
2022/12/07 08:15:47;;;;;;;33.55;17.05;;;;;;;7.46;58.56;93725.75;5009960;28;20045;-77
2022/12/07 08:18:14;;;;;;;29.20;14.80;;;;;;;7.42;58.33;93713.41;5012986;28;20446;-77
2022/12/07 08:20:39;;;;;;;31.10;14.77;;;;;;;7.45;57.71;93724.19;5027032;28;20478;-78
2022/12/07 08:23:06;;;;;;;31.73;15.52;;;;;;;7.69;58.06;93756.50;5006255;28;20101;-78
2022/12/07 08:25:33;;;;;;;34.85;15.73;;;;;;;7.46;57.89;93717.03;5002968;28;20396;-77
2022/12/07 08:27:58;;;;;;;32.55;15.15;;;;;;;7.60;57.69;93729.16;5004030;28;20042;-78
2022/12/07 08:30:24;;;;;;;35.58;17.73;;;;;;;7.59;57.41;93726.81;5010052;28;20084;-77
2022/12/07 08:32:49;;;;;;;30.58;16.20;;;;;;;7.76;57.50;93750.06;5005893;28;20042;-78
2022/12/07 08:35:15;;;;;;;28.30;16.48;;;;;;;7.82;57.49;93759.47;5005464;28;20025;-77
2022/12/07 08:37:41;;;;;;;35.05;15.80;;;;;;;7.62;57.41;93721.72;5004777;28;20037;-77
2022/12/07 08:40:08;;;;;;;26.77;14.13;;;;;;;7.82;57.36;93760.25;5003757;28;20390;-78
2022/12/07 08:42:40;;;;;;;35.60;17.00;;;;;;;7.63;57.49;93725.91;5008877;28;20096;-77
2022/12/07 08:45:16;;;;;;;31.65;15.02;;;;;;;7.82;57.52;93751.53;5004833;28;20586;-77
2022/12/07 08:47:48;;;;;;;26.75;14.68;;;;;;;7.72;57.15;93733.97;5003410;28;20043;-77
2022/12/07 08:50:14;;;;;;;29.48;14.40;;;;;;;7.76;57.11;93747.41;5010303;28;20410;-77
2022/12/07 08:52:41;;;;;;;26.52;12.85;;;;;;;7.73;57.20;93736.31;5004079;28;20732;-77
2022/12/07 08:55:09;;;;;;;26.55;13.68;;;;;;;7.70;57.37;93726.31;5004471;28;20037;-77
2022/12/07 08:57:36;;;;;;;39.13;16.55;;;;;;;7.83;57.42;93743.28;5003763;28;20172;-76
2022/12/07 09:00:03;;;;;;;34.08;16.58;;;;;;;7.85;57.67;93735.81;5005151;28;20061;-77
2022/12/07 09:02:31;;;;;;;31.25;15.45;;;;;;;7.75;57.19;93708.78;5003951;28;20041;-76
2022/12/07 09:04:56;;;;;;;30.50;16.27;;;;;;;7.87;56.99;93735.53;5004049;28;20205;-77
2022/12/07 09:07:22;;;;;;;30.98;15.68;;;;;;;7.71;56.65;93701.41;5004582;28;20389;-78
2022/12/07 09:09:47;;;;;;;36.30;16.77;;;;;;;7.79;56.97;93712.41;5011312;28;20029;-77
2022/12/07 09:12:13;;;;;;;34.63;16.42;;;;;;;7.88;57.14;93727.28;5006895;28;20033;-76
2022/12/07 09:14:38;;;;;;;30.65;15.93;;;;;;;7.71;57.63;93722.59;5006723;28;20033;-77
2022/12/07 09:17:08;;;;;;;31.90;17.33;;;;;;;7.35;58.58;93692.63;5006532;28;20071;-77
2022/12/07 09:19:34;;;;;;;38.75;18.27;;;;;;;7.47;59.19;93713.31;5002178;28;20145;-77
2022/12/07 09:21:59;;;;;;;30.83;17.63;;;;;;;7.37;59.61;93722.22;5003097;28;20533;-76
2022/12/07 09:24:25;;;;;;;42.70;20.98;;;;;;;7.36;59.49;93690.78;5020652;28;20033;-77
2022/12/07 09:26:50;;;;;;;39.25;19.02;;;;;;;7.55;59.84;93713.38;5005011;28;20113;-76
2022/12/07 09:29:15;;;;;;;38.70;18.77;;;;;;;7.61;60.19;93717.50;5002526;28;20060;-76
2022/12/07 09:31:41;;;;;;;39.53;18.10;;;;;;;7.54;59.70;93717.09;5004886;28;20034;-77
2022/12/07 09:34:07;;;;;;;33.78;18.20;;;;;;;7.41;59.22;93670.28;4993215;28;20038;-77
2022/12/07 09:36:32;;;;;;;36.55;18.85;;;;;;;7.71;59.11;93692.69;4986475;28;20413;-77
2022/12/07 09:38:58;;;;;;;31.30;16.48;;;;;;;7.51;59.61;93685.16;4987931;28;20045;-78
2022/12/07 09:41:26;;;;;;;29.25;15.45;;;;;;;7.49;59.84;93696.03;5013848;28;20025;-77
2022/12/07 09:43:56;;;;;;;42.70;20.13;;;;;;;7.22;60.96;93698.72;5006060;28;20044;-76
2022/12/07 09:46:22;;;;;;;35.53;18.08;;;;;;;7.13;61.54;93674.81;5017331;28;20065;-78
2022/12/07 09:48:49;;;;;;;40.90;18.23;;;;;;;7.26;61.49;93691.75;5005204;28;20991;-77
2022/12/07 09:51:24;;;;;;;37.05;17.00;;;;;;;6.71;61.60;93606.34;5004635;28;20042;-77
2022/12/07 09:53:50;;;;;;;31.77;18.47;;;;;;;6.78;61.55;93610.19;5004383;28;20125;-78
2022/12/07 09:56:17;;;;;;;39.25;17.52;;;;;;;7.36;61.16;93673.03;5006481;28;20044;-77
2022/12/07 09:58:44;;;;;;;39.67;17.20;;;;;;;7.33;61.50;93657.75;5005104;28;20507;-77
2022/12/07 10:01:12;;;;;;;39.03;20.40;;;;;;;7.52;61.36;93676.94;5008867;28;20041;-75
2022/12/07 10:03:42;;;;;;;43.97;18.17;;;;;;;7.29;61.03;93609.16;5006057;28;20048;-78
2022/12/07 10:06:12;;;;;;;35.42;16.88;;;;;;;7.73;60.66;93678.09;5006496;28;20088;-77
2022/12/07 10:08:37;;;;;;;35.08;18.13;;;;;;;7.73;60.64;93656.13;5006124;28;20260;-77
2022/12/07 10:11:10;;;;;;;45.20;18.13;;;;;;;8.01;60.47;93672.72;5004272;28;20025;-77
2022/12/07 10:13:39;;;;;;;35.53;18.08;;;;;;;7.79;60.90;93665.53;5007454;28;20108;-77
2022/12/07 10:16:27;;;;;;;35.38;18.77;;;;;;;7.60;61.65;93636.53;5007739;28;20060;-77
2022/12/07 10:18:53;;;;;;;40.80;21.48;;;;;;;7.96;60.64;93655.09;5008306;28;20495;-78
2022/12/07 10:21:24;;;;;;;46.13;22.08;;;;;;;7.53;62.25;93630.84;5010023;28;20042;-77
2022/12/07 10:24:01;;;;;;;44.53;19.27;;;;;;;7.97;61.39;93651.34;5006218;28;20774;-78
2022/12/07 10:26:50;;;;;;;37.83;18.05;;;;;;;7.91;60.57;93649.13;5010316;28;20037;-78
2022/12/07 10:29:16;;;;;;;38.55;17.50;;;;;;;7.70;61.30;93646.13;5008462;28;20108;-78
2022/12/07 10:31:52;;;;;;;35.60;17.48;;;;;;;7.44;61.35;93635.28;5006039;28;20490;-78
2022/12/07 10:34:30;;;;;;;27.63;15.40;;;;;;;7.34;61.67;93590.53;5013755;28;20038;-77
2022/12/07 10:37:16;;;;;;;48.10;17.40;;;;;;;7.77;61.94;93628.00;5005695;28;20362;-78
2022/12/07 10:39:48;;;;;;;36.75;15.82;;;;;;;7.82;61.93;93627.09;5007184;28;20250;-78
2022/12/07 10:42:20;;;;;;;34.42;15.98;;;;;;;7.88;61.16;93628.53;5006404;28;20886;-78
2022/12/07 10:44:48;;;;;;;33.35;16.23;;;;;;;7.63;61.19;93577.69;5006516;28;20136;-77
2022/12/07 10:47:24;;;;;;;36.58;16.40;;;;;;;8.02;60.96;93621.34;5006094;28;20057;-78
2022/12/07 10:50:14;;;;;;;35.90;17.20;;;;;;;8.19;60.99;93610.84;5008107;28;20053;-78
2022/12/07 10:52:42;;;;;;;41.35;17.35;;;;;;;8.09;61.20;93608.44;5008074;28;20302;-79
2022/12/07 10:55:08;;;;;;;41.70;19.98;;;;;;;8.05;61.35;93608.25;5007572;28;20042;-77
2022/12/07 10:57:36;;;;;;;38.60;17.20;;;;;;;8.01;60.58;93603.88;5005957;28;20926;-77
2022/12/07 11:00:22;;;;;;;36.88;17.98;;;;;;;8.14;61.37;93595.06;5004877;28;20392;-77
2022/12/07 11:02:53;;;;;;;27.42;16.08;;;;;;;8.25;61.12;93599.03;5006610;28;20160;-78
2022/12/07 11:05:46;;;;;;;25.13;13.98;;;;;;;8.27;59.38;93593.41;5003142;28;20032;-78
2022/12/07 11:08:38;;;;;;;30.40;14.90;;;;;;;8.35;59.70;93592.69;5008135;28;20054;-78
2022/12/07 11:11:15;;;;;;;19.48;11.75;;;;;;;8.48;58.63;93574.06;5005127;28;20400;-78
2022/12/07 11:14:13;;;;;;;18.98;9.82;;;;;;;8.36;57.55;93595.06;5005300;28;20106;-78
2022/12/07 11:16:57;;;;;;;21.77;10.50;;;;;;;8.35;58.60;93588.19;5011130;28;21752;-78
2022/12/07 11:19:53;;;;;;;19.48;9.38;;;;;;;8.44;58.47;93581.06;5012645;28;20071;-76
2022/12/07 11:22:36;;;;;;;26.70;13.73;;;;;;;8.71;57.82;93577.41;4989024;28;20034;-77
2022/12/07 11:25:27;;;;;;;24.08;11.48;;;;;;;8.57;57.24;93568.78;4993925;28;20042;-77
2022/12/07 11:28:28;;;;;;;21.27;10.35;;;;;;;8.53;57.56;93571.28;5011321;28;20034;-77
2022/12/07 11:31:14;;;;;;;19.67;10.57;;;;;;;8.12;57.83;93544.25;5005572;28;20044;-78
2022/12/07 11:33:49;;;;;;;23.75;9.88;;;;;;;8.20;57.99;93559.44;5008060;28;20042;-77
2022/12/07 11:36:33;;;;;;;17.77;7.97;;;;;;;8.17;57.92;93559.25;5002042;28;20395;-78
2022/12/07 11:39:04;;;;;;;17.35;7.25;;;;;;;8.12;57.42;93544.25;5007839;28;20962;-78
2022/12/07 11:41:37;;;;;;;11.73;6.32;;;;;;;8.12;57.05;93549.53;5004357;28;20013;-77
2022/12/07 11:44:07;;;;;;;8.65;6.03;;;;;;;8.06;57.04;93538.31;4985018;28;20021;-77
2022/12/07 11:46:58;;;;;;;13.93;6.82;;;;;;;8.13;57.47;93549.25;5000884;28;20139;-77